createdAt,value
2018-06-03T04:31:03.530Z,6296.00
2018-06-03T04:32:03.402Z,6296.00
2018-06-03T04:33:56.080Z,6296.00
2018-06-03T04:34:55.975Z,6296.00
2018-06-03T04:36:48.672Z,6296.00
2018-06-03T04:37:48.551Z,6296.00
2018-06-03T04:39:41.238Z,6296.00
2018-06-03T04:40:41.133Z,6296.00
2018-06-03T04:42:33.833Z,6296.00
2018-06-03T04:43:33.716Z,6296.00
2018-06-03T04:45:26.551Z,6296.00
2018-06-03T04:46:26.306Z,6296.00
2018-06-03T04:48:19.016Z,6296.00
2018-06-03T04:49:18.892Z,6296.00
2018-06-03T04:51:11.581Z,6296.00
2018-06-03T04:52:11.477Z,6296.00
2018-06-03T04:54:04.184Z,6296.00
2018-06-03T04:55:04.061Z,6296.00
2018-06-03T04:56:56.740Z,6296.00
2018-06-03T04:57:56.634Z,6296.00
2018-06-03T04:59:49.340Z,6296.00
2018-06-03T05:00:49.218Z,6296.00
2018-06-03T05:02:41.900Z,6296.00
2018-06-03T05:03:41.800Z,6296.00
2018-06-03T05:05:34.502Z,6296.00
2018-06-03T05:06:34.421Z,6296.00
2018-06-03T05:08:27.061Z,6296.00
2018-06-03T05:09:26.964Z,6296.00
2018-06-03T05:11:19.672Z,6296.00
2018-06-03T05:12:19.551Z,6296.00
2018-06-03T05:14:12.232Z,6296.00
2018-06-03T05:15:12.131Z,6296.00
2018-06-03T05:17:04.833Z,6296.00
2018-06-03T05:18:04.718Z,6296.00
2018-06-03T05:19:57.417Z,6296.00
2018-06-03T05:20:57.293Z,6296.00
2018-06-03T05:22:49.981Z,6296.00
2018-06-03T05:23:49.870Z,6296.00
2018-06-03T05:25:42.587Z,6296.00
2018-06-03T05:26:42.457Z,6296.00
2018-06-03T05:28:35.148Z,6296.00
2018-06-03T05:29:35.041Z,6296.00
2018-06-03T05:31:27.748Z,6296.00
2018-06-03T05:32:27.624Z,6296.00
2018-06-03T05:34:20.310Z,6296.00
2018-06-03T05:35:20.206Z,6296.00
2018-06-03T05:37:12.912Z,6296.00
2018-06-03T05:38:12.790Z,6296.00
2018-06-03T05:40:05.473Z,6296.00
2018-06-03T05:41:05.370Z,6296.00
2018-06-03T05:42:58.069Z,6296.00
2018-06-03T05:43:57.951Z,6296.00
2018-06-03T05:45:50.651Z,6296.00
2018-06-03T05:46:50.553Z,6296.00
2018-06-03T05:48:43.257Z,6296.00
2018-06-03T05:49:43.134Z,6296.00
2018-06-03T05:51:35.828Z,6296.00
2018-06-03T05:52:35.718Z,6296.00
2018-06-03T05:54:28.418Z,6296.00
2018-06-03T05:55:28.297Z,6296.00
2018-06-03T05:57:20.983Z,6296.00
2018-06-03T05:58:20.883Z,6296.00
2018-06-03T06:00:13.586Z,6296.00
2018-06-03T06:01:13.470Z,6296.00
2018-06-03T06:03:06.152Z,6296.00
2018-06-03T06:04:06.046Z,6296.00
2018-06-03T06:05:58.782Z,6296.00
2018-06-03T06:06:58.640Z,6296.00
2018-06-03T06:08:51.328Z,6296.00
2018-06-03T06:09:51.224Z,6296.00
2018-06-03T06:11:43.932Z,6296.00
2018-06-03T06:12:43.814Z,6296.00
2018-06-03T06:14:36.493Z,6296.00
2018-06-03T06:15:36.395Z,6296.00
2018-06-03T06:17:29.102Z,6296.00
2018-06-03T06:18:28.978Z,6296.00
2018-06-03T06:20:21.672Z,6296.00
2018-06-03T06:21:21.571Z,6296.00
2018-06-03T06:23:14.265Z,6296.00
2018-06-03T06:24:14.157Z,6296.00
2018-06-03T06:26:06.982Z,6296.00
2018-06-03T06:27:06.775Z,6296.00
2018-06-03T06:28:59.513Z,6296.00
2018-06-03T06:29:59.381Z,6296.00
2018-06-03T06:31:52.080Z,6296.00
2018-06-03T06:32:51.983Z,6296.00
2018-06-03T06:34:44.734Z,6296.00
2018-06-03T06:35:44.571Z,6296.00
2018-06-03T06:37:37.266Z,6296.00
2018-06-03T06:38:37.174Z,6296.00
2018-06-03T06:40:29.888Z,6296.00
2018-06-03T06:41:29.769Z,6296.00
2018-06-03T06:43:22.455Z,39072.00
2018-06-03T06:44:22.361Z,31488.00
2018-06-03T06:46:15.075Z,27648.00
2018-06-03T06:47:14.963Z,30784.00
2018-06-03T06:49:07.689Z,22176.00
2018-06-03T06:50:07.605Z,18272.00
2018-06-03T06:52:00.274Z,16352.00
2018-06-03T06:53:00.175Z,16352.00
2018-06-03T06:54:52.908Z,15904.00
2018-06-03T06:55:52.795Z,15968.00
2018-06-03T06:57:45.498Z,16128.00
2018-06-03T06:58:45.400Z,16384.00
2018-06-03T07:00:38.118Z,16160.00
2018-06-03T07:01:37.999Z,16416.00
2018-06-03T07:03:30.694Z,17184.00
2018-06-03T07:04:30.593Z,17184.00
2018-06-03T07:06:23.318Z,16736.00
2018-06-03T07:07:23.204Z,16160.00
2018-06-03T07:09:15.910Z,15872.00
2018-06-03T07:10:15.797Z,15872.00
2018-06-03T07:12:08.515Z,15872.00
2018-06-03T07:13:08.417Z,15872.00
2018-06-03T07:15:01.122Z,15872.00
2018-06-03T07:16:00.992Z,15872.00
2018-06-03T07:17:53.694Z,15872.00
2018-06-03T07:18:53.589Z,15872.00
2018-06-03T07:20:46.303Z,15872.00
2018-06-03T07:21:46.183Z,15872.00
2018-06-03T07:23:38.888Z,15872.00
2018-06-03T07:24:38.784Z,15872.00
2018-06-03T07:26:31.559Z,15872.00
2018-06-03T07:27:31.414Z,15872.00
2018-06-03T07:29:24.076Z,15872.00
2018-06-03T07:30:23.979Z,15872.00
2018-06-03T07:32:16.695Z,15872.00
2018-06-03T07:33:16.581Z,15872.00
2018-06-03T07:35:09.264Z,15872.00
2018-06-03T07:36:09.173Z,15872.00
2018-06-03T07:38:01.883Z,15872.00
2018-06-03T07:39:01.759Z,15872.00
2018-06-03T07:40:54.457Z,15872.00
2018-06-03T07:41:54.358Z,15872.00
2018-06-03T07:43:47.065Z,15872.00
2018-06-03T07:44:46.952Z,15872.00
2018-06-03T07:46:39.658Z,15872.00
2018-06-03T07:47:39.545Z,15872.00
2018-06-03T07:49:32.234Z,15872.00
2018-06-03T07:50:32.143Z,15872.00
2018-06-03T07:52:24.864Z,15872.00
2018-06-03T07:53:24.735Z,15872.00
2018-06-03T07:55:17.430Z,15872.00
2018-06-03T07:56:17.324Z,15872.00
2018-06-03T07:58:10.527Z,15872.00
2018-06-03T07:59:10.411Z,15872.00
2018-06-03T08:01:03.103Z,15872.00
2018-06-03T08:02:03.010Z,15872.00
2018-06-03T08:03:55.720Z,15872.00
2018-06-03T08:04:55.596Z,15872.00
2018-06-03T08:06:48.294Z,15872.00
2018-06-03T08:07:48.193Z,15872.00
2018-06-03T08:09:40.905Z,15872.00
2018-06-03T08:10:40.789Z,15872.00
2018-06-03T08:12:33.500Z,15872.00
2018-06-03T08:13:33.383Z,15872.00
2018-06-03T08:15:26.089Z,15872.00
2018-06-03T08:16:25.981Z,15872.00
2018-06-03T08:18:18.667Z,15872.00
2018-06-03T08:19:18.575Z,15872.00
2018-06-03T08:21:11.283Z,15872.00
2018-06-03T08:22:11.159Z,15872.00
2018-06-03T08:24:03.857Z,15872.00
2018-06-03T08:25:03.759Z,15872.00
2018-06-03T08:26:56.524Z,15872.00
2018-06-03T08:27:56.354Z,15872.00
2018-06-03T08:29:49.101Z,15872.00
2018-06-03T08:30:48.946Z,15872.00
2018-06-03T08:32:41.658Z,15872.00
2018-06-03T08:33:41.546Z,15872.00
2018-06-03T08:35:34.237Z,15872.00
2018-06-03T08:36:34.139Z,15872.00
2018-06-03T08:38:26.929Z,15872.00
2018-06-03T08:39:26.753Z,15872.00
2018-06-03T08:41:19.457Z,15872.00
2018-06-03T08:42:19.363Z,15872.00
2018-06-03T08:44:12.220Z,15872.00
2018-06-03T08:45:11.954Z,15872.00
2018-06-03T08:47:04.701Z,15872.00
2018-06-03T08:48:04.542Z,15872.00
2018-06-03T08:49:57.244Z,15872.00
2018-06-03T08:50:57.142Z,15872.00
2018-06-03T08:52:49.860Z,15872.00
2018-06-03T08:53:49.729Z,15872.00
2018-06-03T08:55:42.419Z,15872.00
2018-06-03T08:56:42.323Z,15872.00
2018-06-03T08:58:35.527Z,15872.00
2018-06-03T08:59:35.403Z,15872.00
2018-06-03T09:01:28.125Z,15872.00
2018-06-03T09:02:28.050Z,15872.00
2018-06-03T09:04:20.767Z,15872.00
2018-06-03T09:05:20.645Z,15872.00
2018-06-03T09:07:13.341Z,15872.00
2018-06-03T09:08:13.248Z,15872.00
2018-06-03T09:10:05.966Z,15872.00
2018-06-03T09:11:05.837Z,15872.00
2018-06-03T09:12:58.527Z,15872.00
2018-06-03T09:13:58.432Z,15872.00
2018-06-03T09:15:51.313Z,15872.00
2018-06-03T09:16:51.029Z,15872.00
2018-06-03T09:18:43.777Z,15872.00
2018-06-03T09:19:43.645Z,15872.00
2018-06-03T09:21:36.332Z,15872.00
2018-06-03T09:22:36.237Z,15872.00
2018-06-03T09:24:28.973Z,15872.00
2018-06-03T09:25:28.840Z,15872.00
2018-06-03T09:27:21.530Z,15872.00
2018-06-03T09:28:21.426Z,15872.00
2018-06-03T09:30:14.150Z,15872.00
2018-06-03T09:31:14.026Z,15872.00
2018-06-03T09:33:07.211Z,15872.00
2018-06-03T09:34:07.107Z,15872.00
2018-06-03T09:35:59.976Z,15872.00
2018-06-03T09:36:59.697Z,15872.00
2018-06-03T09:38:53.879Z,15872.00
2018-06-03T09:39:53.779Z,15872.00
2018-06-03T09:41:46.485Z,15872.00
2018-06-03T09:42:46.395Z,15872.00
2018-06-03T09:44:39.079Z,15872.00
2018-06-03T09:45:38.956Z,15872.00
2018-06-03T09:47:31.679Z,15872.00
2018-06-03T09:48:31.564Z,15872.00
2018-06-03T09:50:24.255Z,15872.00
2018-06-03T09:51:24.156Z,15872.00
2018-06-03T09:53:16.882Z,15872.00
2018-06-03T09:54:16.752Z,15872.00
2018-06-03T09:56:09.448Z,15872.00
2018-06-03T09:57:09.343Z,15872.00
2018-06-03T09:59:02.055Z,19936.00
2018-06-03T10:00:01.944Z,21600.00
2018-06-03T10:01:54.668Z,22720.00
2018-06-03T10:02:54.571Z,22720.00
2018-06-03T10:04:47.269Z,21952.00
2018-06-03T10:05:47.163Z,20608.00
2018-06-03T10:07:40.362Z,17952.00
2018-06-03T10:08:40.258Z,17952.00
2018-06-03T10:10:32.987Z,16704.00
2018-06-03T10:11:32.878Z,17760.00
2018-06-03T10:13:26.065Z,17824.00
2018-06-03T10:14:25.970Z,17824.00
2018-06-03T10:16:18.697Z,16576.00
2018-06-03T10:17:18.575Z,16864.00
2018-06-03T10:19:11.299Z,18592.00
2018-06-03T10:20:11.187Z,18592.00
2018-06-03T10:22:03.868Z,16608.00
2018-06-03T10:23:03.779Z,16640.00
2018-06-03T10:24:56.501Z,14748.00
2018-06-03T10:25:56.376Z,14748.00
2018-06-03T10:27:49.089Z,17856.00
2018-06-03T10:28:48.990Z,19264.00
2018-06-03T10:30:41.708Z,19776.00
2018-06-03T10:31:41.589Z,19776.00
2018-06-03T10:33:34.288Z,17920.00
2018-06-03T10:34:34.193Z,15968.00
2018-06-03T10:36:26.901Z,14912.00
2018-06-03T10:37:26.777Z,14912.00
2018-06-03T10:39:19.481Z,15872.00
2018-06-03T10:40:19.392Z,15968.00
2018-06-03T10:42:12.257Z,16800.00
2018-06-03T10:43:11.988Z,16800.00
2018-06-03T10:45:04.698Z,19232.00
2018-06-03T10:46:04.608Z,19360.00
2018-06-03T10:47:57.315Z,18912.00
2018-06-03T10:48:57.207Z,18912.00
2018-06-03T10:50:49.904Z,17792.00
2018-06-03T10:51:49.805Z,17792.00
2018-06-03T10:53:42.524Z,18240.00
2018-06-03T10:54:42.407Z,18240.00
2018-06-03T10:56:35.105Z,19360.00
2018-06-03T10:57:34.999Z,18848.00
2018-06-03T10:59:27.719Z,17824.00
2018-06-03T11:00:27.618Z,17824.00
2018-06-03T11:02:20.301Z,17024.00
2018-06-03T11:03:20.203Z,18720.00
2018-06-03T11:05:12.922Z,18176.00
2018-06-03T11:06:12.806Z,18240.00
2018-06-03T11:08:05.498Z,19264.00
2018-06-03T11:09:05.403Z,19744.00
2018-06-03T11:10:58.609Z,19456.00
2018-06-03T11:11:58.499Z,18016.00
2018-06-03T11:13:51.229Z,14608.00
2018-06-03T11:14:51.102Z,12484.00
2018-06-03T11:16:44.320Z,9444.00
2018-06-03T11:17:44.196Z,8704.00
2018-06-03T11:19:36.919Z,7948.00
2018-06-03T11:20:36.792Z,7716.00
2018-06-03T11:22:29.487Z,7396.00
2018-06-03T11:23:29.407Z,7408.00
2018-06-03T11:25:22.606Z,7500.00
2018-06-03T11:26:22.494Z,7500.00
2018-06-03T11:28:15.186Z,7212.00
2018-06-03T11:29:15.090Z,7280.00
2018-06-03T11:31:07.803Z,7336.00
2018-06-03T11:32:07.682Z,7336.00
2018-06-03T11:34:00.377Z,7336.00
2018-06-03T11:35:00.283Z,7336.00
2018-06-03T11:36:52.995Z,7268.00
2018-06-03T11:37:52.878Z,7248.00
2018-06-03T11:39:45.570Z,7328.00
2018-06-03T11:40:45.478Z,7328.00
2018-06-03T11:42:38.182Z,7852.00
2018-06-03T11:43:38.066Z,8188.00
2018-06-03T11:45:30.755Z,8248.00
2018-06-03T11:46:30.653Z,8248.00
2018-06-03T11:48:23.370Z,8068.00
2018-06-03T11:49:23.247Z,7952.00
2018-06-03T11:51:15.943Z,7924.00
2018-06-03T11:52:15.854Z,7924.00
2018-06-03T11:54:09.276Z,8632.00
2018-06-03T11:55:09.165Z,8736.00
2018-06-03T11:57:01.842Z,8632.00
2018-06-03T11:58:01.743Z,8632.00
2018-06-03T11:59:54.456Z,8792.00
2018-06-03T12:00:54.339Z,8748.00
2018-06-03T12:02:47.058Z,8284.00
2018-06-03T12:03:46.935Z,8284.00
2018-06-03T12:05:39.622Z,8652.00
2018-06-03T12:06:39.527Z,8776.00
2018-06-03T12:08:32.276Z,9064.00
2018-06-03T12:09:32.164Z,9064.00
2018-06-03T12:11:24.890Z,9128.00
2018-06-03T12:12:25.486Z,9120.00
2018-06-03T12:14:17.464Z,9436.00
2018-06-03T12:15:17.353Z,9436.00
2018-06-03T12:17:10.168Z,7412.00
2018-06-03T12:18:10.085Z,6620.00
2018-06-03T12:20:02.806Z,7892.00
2018-06-03T12:21:02.663Z,7892.00
2018-06-03T12:22:55.437Z,9996.00
2018-06-03T12:23:55.354Z,9652.00
2018-06-03T12:25:48.013Z,8896.00
2018-06-03T12:26:47.921Z,8896.00
2018-06-03T12:28:40.645Z,8896.00
2018-06-03T12:29:40.501Z,8896.00
2018-06-03T12:31:33.691Z,7992.00
2018-06-03T12:32:33.574Z,7284.00
2018-06-03T12:34:26.444Z,6944.00
2018-06-03T12:35:26.251Z,6944.00
2018-06-03T12:37:18.887Z,6904.00
2018-06-03T12:38:18.781Z,7176.00
2018-06-03T12:40:11.476Z,8028.00
2018-06-03T12:41:11.388Z,8028.00
2018-06-03T12:43:04.224Z,8568.00
2018-06-03T12:44:04.049Z,8032.00
2018-06-03T12:45:57.276Z,7144.00
2018-06-03T12:46:57.167Z,7144.00
2018-06-03T12:48:49.924Z,6792.00
2018-06-03T12:49:49.766Z,5980.00
2018-06-03T12:51:42.650Z,5964.00
2018-06-03T12:52:42.389Z,5964.00
2018-06-03T12:54:35.099Z,7380.00
2018-06-03T12:55:34.986Z,7352.00
2018-06-03T12:57:27.689Z,7340.00
2018-06-03T12:58:27.560Z,7340.00
2018-06-03T13:00:20.356Z,7876.00
2018-06-03T13:01:20.232Z,7596.00
2018-06-03T13:03:13.508Z,6836.00
2018-06-03T13:04:13.359Z,6836.00
2018-06-03T13:06:06.144Z,6064.00
2018-06-03T13:07:05.983Z,6184.00
2018-06-03T13:08:58.691Z,6112.00
2018-06-03T13:09:58.680Z,6112.00
2018-06-03T13:11:51.299Z,6112.00
2018-06-03T13:12:51.182Z,6112.00
2018-06-03T13:14:43.885Z,6112.00
2018-06-03T13:15:43.788Z,6112.00
2018-06-03T13:17:36.494Z,6112.00
2018-06-03T13:18:36.380Z,6112.00
2018-06-03T13:20:29.080Z,6112.00
2018-06-03T13:21:28.979Z,6112.00
2018-06-03T13:23:21.743Z,6112.00
2018-06-03T13:24:21.568Z,6112.00
2018-06-03T13:26:14.262Z,6480.00
2018-06-03T13:27:14.169Z,5884.00
2018-06-03T13:29:06.872Z,5800.00
2018-06-03T13:30:06.761Z,5800.00
2018-06-03T13:31:59.510Z,5800.00
2018-06-03T13:32:59.356Z,5800.00
2018-06-03T13:34:52.066Z,5800.00
2018-06-03T13:35:51.949Z,5800.00
2018-06-03T13:37:45.126Z,5800.00
2018-06-03T13:38:45.035Z,5800.00
2018-06-03T13:40:37.746Z,5800.00
2018-06-03T13:41:37.637Z,5800.00
2018-06-03T13:43:30.329Z,5800.00
2018-06-03T13:44:30.236Z,5800.00
2018-06-03T13:46:22.956Z,7208.00
2018-06-03T13:47:22.843Z,7336.00
2018-06-03T13:49:16.024Z,7564.00
2018-06-03T13:50:15.929Z,7564.00
2018-06-03T13:52:08.655Z,7232.00
2018-06-03T13:53:08.524Z,7232.00
2018-06-03T13:55:01.215Z,7136.00
2018-06-03T13:56:01.125Z,7136.00
2018-06-03T13:57:54.329Z,6404.00
2018-06-03T13:58:54.220Z,6624.00
2018-06-03T14:00:46.911Z,6828.00
2018-06-03T14:01:46.807Z,6828.00
2018-06-03T14:03:39.525Z,6900.00
2018-06-03T14:04:39.419Z,7124.00
2018-06-03T14:06:32.097Z,7516.00
2018-06-03T14:07:32.006Z,7516.00
2018-06-03T14:09:25.217Z,7996.00
2018-06-03T14:10:25.101Z,7804.00
2018-06-03T14:12:17.791Z,7392.00
2018-06-03T14:13:17.697Z,7392.00
2018-06-03T14:15:10.531Z,6912.00
2018-06-03T14:16:10.573Z,7120.00
2018-06-03T14:18:03.047Z,7408.00
2018-06-03T14:19:03.165Z,7408.00
2018-06-03T14:20:55.819Z,7368.00
2018-06-03T14:21:55.765Z,7404.00
2018-06-03T14:23:48.452Z,7196.00
2018-06-03T14:24:48.361Z,7196.00
2018-06-03T14:26:41.365Z,7612.00
2018-06-03T14:27:41.265Z,7836.00
2018-06-03T14:29:34.442Z,8176.00
2018-06-03T14:30:33.793Z,8176.00
2018-06-03T14:32:26.727Z,7796.00
2018-06-03T14:33:26.634Z,7388.00
2018-06-03T14:35:19.623Z,7096.00
2018-06-03T14:36:19.249Z,7096.00
2018-06-03T14:38:11.909Z,6076.00
2018-06-03T14:39:11.847Z,5844.00
2018-06-03T14:41:04.873Z,6164.00
2018-06-03T14:42:04.318Z,6164.00
2018-06-03T14:43:57.754Z,7488.00
2018-06-03T14:44:57.054Z,7840.00
2018-06-03T14:46:49.957Z,7676.00
2018-06-03T14:47:49.843Z,7676.00
2018-06-03T14:49:42.525Z,7000.00
2018-06-03T14:50:42.549Z,6940.00
2018-06-03T14:52:35.142Z,5884.00
2018-06-03T14:53:35.033Z,5884.00
2018-06-03T14:55:27.717Z,5444.00
2018-06-03T14:56:27.625Z,5484.00
2018-06-03T14:58:20.342Z,5472.00
2018-06-03T14:59:20.178Z,5472.00
2018-06-03T15:01:12.860Z,5628.00
2018-06-03T15:02:12.764Z,6000.00
2018-06-03T15:04:05.475Z,5980.00
2018-06-03T15:05:05.364Z,5980.00
2018-06-03T15:06:58.102Z,6388.00
2018-06-03T15:07:57.952Z,6832.00
2018-06-03T15:09:50.664Z,6864.00
2018-06-03T15:10:50.546Z,6864.00
2018-06-03T15:12:43.239Z,6780.00
2018-06-03T15:13:43.156Z,6928.00
2018-06-03T15:15:35.865Z,7076.00
2018-06-03T15:16:35.748Z,7076.00
2018-06-03T15:18:28.437Z,7076.00
2018-06-03T15:19:28.350Z,7076.00
2018-06-03T15:21:21.572Z,7076.00
2018-06-03T15:22:21.461Z,7076.00
2018-06-03T15:24:14.338Z,7076.00
2018-06-03T15:25:14.071Z,7076.00
2018-06-03T15:27:06.757Z,7076.00
2018-06-03T15:28:06.666Z,7076.00
2018-06-03T15:29:59.383Z,7076.00
2018-06-03T15:30:59.267Z,7076.00
2018-06-03T15:32:51.981Z,7076.00
2018-06-03T15:33:51.898Z,7076.00
2018-06-03T15:35:44.577Z,7076.00
2018-06-03T15:36:44.477Z,7076.00
2018-06-03T15:38:37.153Z,7076.00
2018-06-03T15:39:37.062Z,7076.00
2018-06-03T15:41:29.772Z,7076.00
2018-06-03T15:42:29.652Z,7076.00
2018-06-03T15:44:22.348Z,7076.00
2018-06-03T15:45:22.248Z,7076.00
2018-06-03T15:47:14.957Z,7076.00
2018-06-03T15:48:14.850Z,7076.00
2018-06-03T15:50:07.537Z,7076.00
2018-06-03T15:51:07.442Z,7076.00
2018-06-03T15:53:00.157Z,7076.00
2018-06-03T15:54:00.037Z,7076.00
2018-06-03T15:55:52.724Z,7076.00
2018-06-03T15:56:52.634Z,7076.00
2018-06-03T15:58:45.343Z,7076.00
2018-06-03T15:59:45.223Z,7076.00
2018-06-03T16:01:37.921Z,7076.00
2018-06-03T16:02:37.827Z,7076.00
2018-06-03T16:04:30.537Z,7076.00
2018-06-03T16:05:30.414Z,7076.00
2018-06-03T16:07:23.125Z,7076.00
2018-06-03T16:08:23.012Z,7076.00
2018-06-03T16:10:15.725Z,7076.00
2018-06-03T16:11:15.611Z,7076.00
2018-06-03T16:13:08.308Z,7076.00
2018-06-03T16:14:08.208Z,7076.00
2018-06-03T16:16:00.917Z,7076.00
2018-06-03T16:17:00.803Z,7076.00
2018-06-03T16:18:53.497Z,7076.00
2018-06-03T16:19:53.398Z,7076.00
2018-06-03T16:21:46.113Z,7076.00
2018-06-03T16:22:45.995Z,7076.00
2018-06-03T16:24:38.688Z,7076.00
2018-06-03T16:25:38.596Z,7076.00
2018-06-03T16:27:31.293Z,7076.00
2018-06-03T16:28:31.175Z,7076.00
2018-06-03T16:30:23.914Z,7076.00
2018-06-03T16:31:23.788Z,7076.00
2018-06-03T16:33:16.480Z,7076.00
2018-06-03T16:34:16.361Z,7076.00
2018-06-03T16:36:09.057Z,7076.00
2018-06-03T16:37:08.953Z,7076.00
2018-06-03T16:39:01.667Z,7076.00
2018-06-03T16:40:01.546Z,7076.00
2018-06-03T16:41:54.239Z,7076.00
2018-06-03T16:42:54.141Z,7076.00
2018-06-03T16:44:46.841Z,7076.00
2018-06-03T16:45:46.729Z,7076.00
2018-06-03T16:47:39.421Z,7076.00
2018-06-03T16:48:39.351Z,7076.00
2018-06-03T16:50:32.038Z,7076.00
2018-06-03T16:51:31.915Z,7076.00
2018-06-03T16:53:24.608Z,7076.00
2018-06-03T16:54:24.511Z,7076.00
2018-06-03T16:56:17.224Z,7076.00
2018-06-03T16:57:17.094Z,7076.00
2018-06-03T16:59:09.792Z,7076.00
2018-06-03T17:00:09.692Z,7076.00
2018-06-03T17:02:02.397Z,7076.00
2018-06-03T17:03:02.285Z,7076.00
2018-06-03T17:04:54.976Z,7076.00
2018-06-03T17:05:54.880Z,7076.00
2018-06-03T17:07:47.584Z,7076.00
2018-06-03T17:08:47.472Z,7076.00
2018-06-03T17:10:40.435Z,7076.00
2018-06-03T17:11:40.236Z,7076.00
2018-06-03T17:13:32.766Z,7076.00
2018-06-03T17:14:32.681Z,7076.00
2018-06-03T17:16:25.341Z,7076.00
2018-06-03T17:17:25.243Z,7076.00
2018-06-03T17:19:17.950Z,7076.00
2018-06-03T17:20:17.918Z,7076.00
2018-06-03T17:22:10.522Z,7076.00
2018-06-03T17:23:10.423Z,7076.00
2018-06-03T17:25:03.139Z,7076.00
2018-06-03T17:26:03.022Z,7076.00
2018-06-03T17:27:56.364Z,7076.00
2018-06-03T17:28:55.630Z,7076.00
2018-06-03T17:30:48.340Z,7076.00
2018-06-03T17:31:48.234Z,7076.00
2018-06-03T17:33:40.978Z,7076.00
2018-06-03T17:34:40.895Z,7076.00
2018-06-03T17:36:33.656Z,7076.00
2018-06-03T17:37:33.513Z,7076.00
2018-06-03T17:39:26.188Z,7076.00
2018-06-03T17:40:26.106Z,7076.00
2018-06-03T17:42:18.867Z,7076.00
2018-06-03T17:43:18.681Z,7076.00
2018-06-03T17:45:11.429Z,7076.00
2018-06-03T17:46:11.329Z,7076.00
2018-06-03T17:48:04.169Z,7076.00
2018-06-03T17:49:03.937Z,7076.00
2018-06-03T17:50:56.842Z,7076.00
2018-06-03T17:51:56.528Z,7076.00
2018-06-03T17:53:49.219Z,7076.00
2018-06-03T17:54:49.170Z,7076.00
2018-06-03T17:56:41.885Z,7076.00
2018-06-03T17:57:41.710Z,7076.00
2018-06-03T17:59:34.428Z,7076.00
2018-06-03T18:00:34.387Z,7076.00
2018-06-03T18:02:27.125Z,7076.00
2018-06-03T18:03:26.988Z,7076.00
2018-06-03T18:05:19.701Z,7076.00
2018-06-03T18:06:19.597Z,7076.00
2018-06-03T18:08:12.339Z,7076.00
2018-06-03T18:09:12.180Z,7076.00
2018-06-03T18:11:04.881Z,7076.00
2018-06-03T18:12:04.769Z,7076.00
2018-06-03T18:13:57.479Z,7076.00
2018-06-03T18:14:57.366Z,7076.00
2018-06-03T18:16:50.080Z,7076.00
2018-06-03T18:17:49.952Z,7076.00
2018-06-03T18:19:42.655Z,7076.00
2018-06-03T18:20:42.548Z,7076.00
2018-06-03T18:22:35.288Z,7076.00
2018-06-03T18:23:35.135Z,7076.00
2018-06-03T18:25:27.837Z,7076.00
2018-06-03T18:26:27.720Z,7076.00
2018-06-03T18:28:20.441Z,7076.00
2018-06-03T18:29:20.337Z,7076.00
2018-06-03T18:31:13.044Z,7076.00
2018-06-03T18:32:13.024Z,7076.00
2018-06-03T18:34:05.618Z,7076.00
2018-06-03T18:35:05.516Z,7076.00
2018-06-03T18:36:58.234Z,7076.00
2018-06-03T18:37:58.110Z,7076.00
2018-06-03T18:39:50.807Z,7076.00
2018-06-03T18:40:50.704Z,7076.00
2018-06-03T18:42:43.426Z,7076.00
2018-06-03T18:43:43.290Z,7076.00
2018-06-03T18:45:35.977Z,7076.00
2018-06-03T18:46:35.879Z,7076.00
2018-06-03T18:48:28.588Z,7076.00
2018-06-03T18:49:28.471Z,7076.00
2018-06-03T18:51:21.177Z,7076.00
2018-06-03T18:52:21.058Z,7076.00
2018-06-03T18:54:13.739Z,7076.00
2018-06-03T18:55:13.643Z,7076.00
2018-06-03T18:57:06.352Z,7076.00
2018-06-03T18:58:06.232Z,7076.00
2018-06-03T18:59:58.929Z,7076.00
2018-06-03T19:00:58.829Z,7076.00
2018-06-03T19:02:51.547Z,7076.00
2018-06-03T19:03:51.412Z,7076.00
2018-06-03T19:05:44.108Z,7076.00
2018-06-03T19:06:44.005Z,7076.00
2018-06-03T19:08:36.704Z,7076.00
2018-06-03T19:09:36.593Z,7076.00
2018-06-03T19:11:29.278Z,7076.00
2018-06-03T19:12:29.210Z,7076.00
2018-06-03T19:14:21.872Z,7076.00
2018-06-03T19:15:21.763Z,7076.00
2018-06-03T19:17:14.454Z,7076.00
2018-06-03T19:18:14.354Z,7076.00
2018-06-03T19:20:07.061Z,7076.00
2018-06-03T19:21:06.964Z,7076.00
2018-06-03T19:22:59.629Z,7076.00
2018-06-03T19:23:59.518Z,7076.00
2018-06-03T19:25:52.226Z,7076.00
2018-06-03T19:26:52.103Z,7076.00
2018-06-03T19:28:44.789Z,7076.00
2018-06-03T19:29:44.692Z,7076.00
2018-06-03T19:31:37.394Z,7076.00
2018-06-03T19:32:37.277Z,7076.00
2018-06-03T19:34:29.969Z,7076.00
2018-06-03T19:35:29.877Z,7076.00
2018-06-03T19:37:22.577Z,7076.00
2018-06-03T19:38:22.466Z,7076.00
2018-06-03T19:40:15.139Z,7076.00
2018-06-03T19:41:15.040Z,7076.00
2018-06-03T19:43:07.749Z,7076.00
2018-06-03T19:44:07.628Z,7076.00
2018-06-03T19:46:00.311Z,7076.00
2018-06-03T19:47:00.216Z,7076.00
2018-06-03T19:48:52.915Z,7076.00
2018-06-03T19:49:52.799Z,7076.00
2018-06-03T19:51:45.483Z,7076.00
2018-06-03T19:52:45.380Z,7076.00
2018-06-03T19:54:38.367Z,7076.00
2018-06-03T19:55:37.973Z,7076.00
2018-06-03T19:57:30.671Z,7076.00
2018-06-03T19:58:31.099Z,7076.00
2018-06-03T20:00:23.250Z,7076.00
2018-06-03T20:01:23.147Z,7076.00
2018-06-03T20:03:15.854Z,7076.00
2018-06-03T20:04:16.469Z,7076.00
2018-06-03T20:06:09.096Z,7076.00
2018-06-03T20:07:08.997Z,7076.00
2018-06-03T20:09:01.696Z,7076.00
2018-06-03T20:10:01.579Z,7076.00
2018-06-03T20:11:54.264Z,7076.00
2018-06-03T20:12:54.166Z,7076.00
2018-06-03T20:14:46.868Z,7076.00
2018-06-03T20:15:46.746Z,7076.00
2018-06-03T20:17:39.486Z,7076.00
2018-06-03T20:18:39.340Z,7076.00
2018-06-03T20:20:32.014Z,7076.00
2018-06-03T20:21:31.972Z,7076.00
2018-06-03T20:23:24.618Z,7076.00
2018-06-03T20:24:24.515Z,7076.00
2018-06-03T20:26:17.195Z,7076.00
2018-06-03T20:27:17.094Z,7076.00
2018-06-03T20:29:09.802Z,7076.00
2018-06-03T20:30:09.686Z,7076.00
2018-06-03T20:32:02.384Z,7076.00
2018-06-03T20:33:02.384Z,7076.00
2018-06-03T20:34:54.974Z,7076.00
2018-06-03T20:35:54.859Z,7076.00
2018-06-03T20:37:47.550Z,7076.00
2018-06-03T20:38:47.442Z,7076.00
2018-06-03T20:40:40.138Z,7076.00
2018-06-03T20:41:40.021Z,7076.00
2018-06-03T20:43:32.721Z,7076.00
2018-06-03T20:44:32.602Z,7076.00
2018-06-03T20:46:25.336Z,7076.00
2018-06-03T20:47:25.425Z,7076.00
2018-06-03T20:49:17.869Z,7076.00
2018-06-03T20:50:17.770Z,7076.00
2018-06-03T20:52:10.476Z,7076.00
2018-06-03T20:53:10.365Z,7076.00
2018-06-03T20:55:03.063Z,7076.00
2018-06-03T20:56:02.949Z,7076.00
2018-06-03T20:57:55.651Z,7076.00
2018-06-03T20:58:55.523Z,7076.00
2018-06-03T21:00:48.239Z,7076.00
2018-06-03T21:01:48.109Z,7076.00
2018-06-03T21:03:40.789Z,7076.00
2018-06-03T21:04:40.694Z,7076.00
2018-06-03T21:06:33.404Z,7076.00
2018-06-03T21:07:33.275Z,7076.00
2018-06-03T21:09:25.958Z,7076.00
2018-06-03T21:10:25.858Z,7076.00
2018-06-03T21:12:18.557Z,7076.00
2018-06-03T21:13:18.433Z,7076.00
2018-06-03T21:15:11.112Z,7076.00
2018-06-03T21:16:11.014Z,7076.00
2018-06-03T21:18:03.719Z,7076.00
2018-06-03T21:19:03.595Z,7076.00
2018-06-03T21:20:56.432Z,7076.00
2018-06-03T21:21:56.183Z,7076.00
2018-06-03T21:23:48.886Z,7076.00
2018-06-03T21:24:48.761Z,7076.00
2018-06-03T21:26:41.455Z,7076.00
2018-06-03T21:27:41.353Z,7076.00
2018-06-03T21:29:34.049Z,7076.00
2018-06-03T21:30:33.939Z,7076.00
2018-06-03T21:32:26.614Z,7076.00
2018-06-03T21:33:26.508Z,7076.00
2018-06-03T21:35:19.216Z,7076.00
2018-06-03T21:36:19.100Z,7076.00
2018-06-03T21:38:11.781Z,7076.00
2018-06-03T21:39:11.675Z,7076.00
2018-06-03T21:41:04.379Z,7076.00
2018-06-03T21:42:04.256Z,7076.00
2018-06-03T21:43:56.946Z,7076.00
2018-06-03T21:44:56.834Z,7076.00
2018-06-03T21:46:49.542Z,7076.00